createdAt,value
2023-02-24T00:02:06.333Z,3.80
2023-02-24T00:04:39.920Z,3.70
2023-02-24T00:07:10.808Z,3.90
2023-02-24T00:09:39.712Z,3.60
2023-02-24T00:12:13.725Z,4.60
2023-02-24T00:14:44.374Z,4.20
2023-02-24T00:17:16.617Z,4.60
2023-02-24T00:19:46.644Z,3.80
2023-02-24T00:22:14.955Z,3.90
2023-02-24T00:24:43.132Z,3.70
2023-02-24T00:27:12.422Z,4.20
2023-02-24T00:29:42.403Z,4.20
2023-02-24T00:32:13.648Z,4.40
2023-02-24T00:34:43.665Z,3.70
2023-02-24T00:37:12.371Z,3.60
2023-02-24T00:39:44.599Z,3.30
2023-02-24T00:42:13.070Z,3.60
2023-02-24T00:44:46.587Z,3.30
2023-02-24T00:47:17.211Z,3.30
2023-02-24T00:49:46.144Z,3.20
2023-02-24T00:52:18.389Z,3.70
2023-02-24T00:54:49.315Z,3.40
2023-02-24T00:57:21.759Z,3.90
2023-02-24T00:59:54.806Z,4.20
2023-02-24T01:02:23.128Z,3.70
2023-02-24T01:04:52.109Z,3.60
2023-02-24T01:07:21.175Z,2.90
2023-02-24T01:09:51.037Z,3.60
2023-02-24T01:12:22.034Z,3.60
2023-02-24T01:14:53.472Z,3.20
2023-02-24T01:17:24.503Z,3.10
2023-02-24T01:19:53.172Z,3.30
2023-02-24T01:22:24.716Z,2.90
2023-02-24T01:24:53.758Z,3.60
2023-02-24T01:27:22.307Z,4.00
2023-02-24T01:29:50.682Z,4.30
2023-02-24T01:32:21.715Z,4.20
2023-02-24T01:34:53.441Z,4.50
2023-02-24T01:37:22.090Z,3.90
2023-02-24T01:39:51.356Z,4.50
2023-02-24T01:42:21.887Z,3.80
2023-02-24T01:44:52.348Z,3.70
2023-02-24T01:47:21.473Z,4.30
2023-02-24T01:49:54.298Z,3.70
2023-02-24T01:52:28.247Z,4.30
2023-02-24T01:55:03.216Z,3.90
2023-02-24T01:57:35.745Z,3.80
2023-02-24T02:00:11.947Z,3.60
2023-02-24T02:02:47.623Z,3.40
2023-02-24T02:05:16.372Z,4.90
2023-02-24T02:07:46.100Z,4.00
2023-02-24T02:10:14.432Z,4.70
2023-02-24T02:12:46.832Z,4.60
2023-02-24T02:15:21.317Z,4.20
2023-02-24T02:18:25.419Z,4.00
2023-02-24T02:21:09.957Z,4.70
2023-02-24T02:23:50.072Z,3.60
2023-02-24T02:26:49.222Z,3.80
2023-02-24T02:29:29.403Z,5.70
2023-02-24T02:32:41.131Z,3.30
2023-02-24T02:35:09.512Z,3.70
2023-02-24T02:37:56.463Z,4.30
2023-02-24T02:40:33.309Z,5.00
2023-02-24T02:43:19.671Z,5.20
2023-02-24T02:45:58.115Z,4.50
2023-02-24T02:48:41.393Z,4.20
2023-02-24T02:51:13.558Z,3.70
2023-02-24T02:54:01.326Z,3.80
2023-02-24T02:56:47.258Z,3.90
2023-02-24T02:59:23.462Z,3.80
2023-02-24T03:02:01.300Z,3.80
2023-02-24T03:04:30.393Z,4.20
2023-02-24T03:07:03.673Z,3.60
2023-02-24T03:09:40.048Z,3.80
2023-02-24T03:12:13.500Z,4.00
2023-02-24T03:14:52.071Z,3.60
2023-02-24T03:17:24.501Z,4.00
2023-02-24T03:20:13.229Z,4.40
2023-02-24T03:22:47.297Z,3.40
2023-02-24T03:25:17.079Z,4.30
2023-02-24T03:28:01.895Z,4.20
2023-02-24T03:31:00.108Z,4.20
2023-02-24T03:33:40.049Z,3.50
2023-02-24T03:36:09.000Z,3.70
2023-02-24T03:38:38.732Z,3.20
2023-02-24T03:41:11.572Z,4.00
2023-02-24T03:43:45.166Z,4.10
2023-02-24T03:46:17.212Z,4.00
2023-02-24T03:48:57.892Z,3.80
2023-02-24T03:51:27.806Z,3.80
2023-02-24T03:54:20.618Z,3.90
2023-02-24T03:57:02.106Z,4.60
2023-02-24T03:59:50.127Z,4.10
2023-02-24T04:02:26.177Z,3.80
2023-02-24T04:05:01.838Z,4.40
2023-02-24T04:08:12.459Z,3.70
2023-02-24T04:10:56.172Z,3.80
2023-02-24T04:13:38.636Z,3.90
2023-02-24T04:16:36.601Z,3.90
2023-02-24T04:19:10.159Z,5.00
2023-02-24T04:21:40.327Z,3.60
2023-02-24T04:24:16.057Z,3.90
2023-02-24T04:29:20.686Z,4.60
2023-02-24T04:31:55.092Z,4.60
2023-02-24T04:34:24.141Z,3.50
2023-02-24T04:36:52.785Z,3.90
2023-02-24T04:39:23.546Z,4.20
2023-02-24T04:41:54.895Z,4.70
2023-02-24T04:44:23.715Z,4.80
2023-02-24T04:46:52.353Z,5.00
2023-02-24T04:49:20.824Z,3.90
2023-02-24T04:51:49.431Z,4.10
2023-02-24T04:54:20.139Z,4.20
2023-02-24T04:56:51.135Z,4.60
2023-02-24T04:59:21.168Z,5.20
2023-02-24T05:01:53.324Z,4.30
2023-02-24T05:04:21.531Z,4.30
2023-02-24T05:06:49.754Z,4.60
2023-02-24T05:09:18.351Z,5.00
2023-02-24T05:11:51.537Z,5.10
2023-02-24T05:14:21.391Z,4.20
2023-02-24T05:16:50.495Z,4.70
2023-02-24T05:19:39.646Z,6.20
2023-02-24T05:22:10.036Z,5.40
2023-02-24T05:24:38.751Z,4.90
2023-02-24T05:27:07.172Z,4.50
2023-02-24T05:29:35.878Z,4.00
2023-02-24T05:32:05.857Z,4.10
2023-02-24T05:34:34.503Z,4.70
2023-02-24T05:37:10.315Z,5.10
2023-02-24T05:39:38.596Z,5.20
2023-02-24T05:42:07.327Z,4.90
2023-02-24T05:44:36.449Z,4.40
2023-02-24T05:47:05.902Z,5.30
2023-02-24T05:49:35.419Z,4.40
2023-02-24T05:52:10.309Z,5.00
2023-02-24T05:54:41.588Z,5.40
2023-02-24T05:57:17.217Z,5.30
2023-02-24T05:59:46.917Z,4.90
2023-02-24T06:02:28.046Z,4.00
2023-02-24T06:04:59.036Z,3.80
2023-02-24T06:07:29.122Z,5.00
2023-02-24T06:10:00.398Z,4.80
2023-02-24T06:12:34.011Z,5.10
2023-02-24T06:15:07.893Z,4.30
2023-02-24T06:17:38.239Z,4.10
2023-02-24T06:20:16.046Z,5.40
2023-02-24T06:22:44.421Z,5.20
2023-02-24T06:25:12.892Z,6.10
2023-02-24T06:27:43.523Z,6.70
2023-02-24T06:30:12.847Z,5.10
2023-02-24T06:32:41.373Z,4.40
2023-02-24T06:35:10.600Z,5.20
2023-02-24T06:37:39.730Z,6.90
2023-02-24T06:40:16.076Z,7.20
2023-02-24T06:42:49.399Z,5.40
2023-02-24T06:45:17.731Z,6.40
2023-02-24T06:47:49.033Z,6.60
2023-02-24T06:50:20.442Z,5.60
2023-02-24T06:52:49.284Z,5.50
2023-02-24T06:55:27.726Z,6.00
2023-02-24T06:57:58.936Z,5.60
2023-02-24T07:00:39.143Z,6.70
2023-02-24T07:03:15.714Z,4.80
2023-02-24T07:05:54.592Z,5.00
2023-02-24T07:08:27.595Z,6.00
2023-02-24T07:10:58.344Z,4.80
2023-02-24T07:13:30.750Z,5.50
2023-02-24T07:16:07.470Z,4.70
2023-02-24T07:18:40.901Z,4.20
2023-02-24T07:21:16.430Z,6.50
2023-02-24T07:23:46.173Z,5.50
2023-02-24T07:26:17.505Z,4.70
2023-02-24T07:28:48.213Z,4.80
2023-02-24T07:31:19.394Z,5.00
2023-02-24T07:33:48.458Z,4.70
2023-02-24T07:36:24.789Z,6.20
2023-02-24T07:38:54.653Z,6.30
2023-02-24T07:41:23.920Z,6.70
2023-02-24T07:43:54.082Z,25.00
2023-02-24T07:46:28.218Z,11.00
2023-02-24T07:48:59.476Z,7.30
2023-02-24T07:51:29.533Z,6.00
2023-02-24T07:53:59.684Z,5.20
2023-02-24T07:56:29.410Z,6.40
2023-02-24T07:59:02.862Z,5.90
2023-02-24T08:01:39.202Z,8.40
2023-02-24T08:04:09.157Z,7.40
2023-02-24T08:06:46.082Z,8.60
2023-02-24T08:09:18.933Z,5.80
2023-02-24T08:11:55.737Z,7.00
2023-02-24T08:14:32.919Z,6.40
2023-02-24T08:17:07.324Z,6.70
2023-02-24T08:19:42.363Z,7.40
2023-02-24T08:22:24.314Z,6.30
2023-02-24T08:25:06.466Z,6.00
2023-02-24T08:27:39.231Z,6.80
2023-02-24T08:30:09.545Z,5.60
2023-02-24T08:32:47.084Z,9.40
2023-02-24T08:35:23.275Z,7.40
2023-02-24T08:37:56.191Z,7.30
2023-02-24T08:40:34.268Z,8.10
2023-02-24T08:43:16.330Z,6.40
2023-02-24T08:45:51.731Z,13.80
2023-02-24T08:48:38.802Z,9.20
2023-02-24T08:51:18.149Z,6.60
2023-02-24T08:53:47.324Z,6.60
2023-02-24T08:56:24.387Z,6.40
2023-02-24T08:59:05.638Z,6.40
2023-02-24T09:01:43.258Z,4.90
2023-02-24T09:04:19.408Z,5.90
2023-02-24T09:06:53.784Z,5.10
2023-02-24T09:09:24.745Z,5.50
2023-02-24T09:11:57.130Z,5.40
2023-02-24T09:14:36.676Z,6.00
2023-02-24T09:17:11.405Z,8.50
2023-02-24T09:19:51.029Z,6.70
2023-02-24T09:22:33.050Z,6.60
2023-02-24T09:25:24.297Z,10.90
2023-02-24T09:27:56.273Z,5.60
2023-02-24T09:30:39.016Z,8.90
2023-02-24T09:33:21.368Z,6.20
2023-02-24T09:36:10.422Z,7.80
2023-02-24T09:39:00.061Z,6.60
2023-02-24T09:41:56.893Z,6.70
2023-02-24T09:47:40.264Z,6.30
2023-02-24T09:50:46.951Z,6.00
2023-02-24T09:53:17.596Z,6.30
2023-02-24T09:55:46.342Z,5.10
2023-02-24T09:58:48.170Z,6.10
2023-02-24T10:01:36.065Z,5.40
2023-02-24T10:04:21.072Z,6.30
2023-02-24T10:07:15.705Z,6.90
2023-02-24T10:09:51.754Z,5.90
2023-02-24T10:12:30.712Z,6.10
2023-02-24T10:15:20.247Z,6.60
2023-02-24T10:17:55.712Z,6.00
2023-02-24T10:20:40.996Z,7.90
2023-02-24T10:23:33.153Z,6.10
2023-02-24T10:26:31.808Z,6.50
2023-02-24T10:29:09.475Z,5.80
2023-02-24T10:31:48.767Z,5.40
2023-02-24T10:34:21.592Z,6.40
2023-02-24T10:36:51.556Z,5.30
2023-02-24T10:39:26.335Z,6.20
2023-02-24T10:42:16.919Z,9.10
2023-02-24T10:45:02.487Z,6.60
2023-02-24T10:47:32.348Z,6.70
2023-02-24T10:50:04.177Z,7.40
2023-02-24T10:52:59.396Z,7.50
2023-02-24T10:55:45.958Z,6.90
2023-02-24T10:58:38.086Z,6.30
2023-02-24T11:01:40.852Z,5.10
2023-02-24T11:04:45.348Z,4.90
2023-02-24T11:07:24.822Z,5.30
2023-02-24T11:10:15.092Z,5.80
2023-02-24T11:13:10.349Z,6.90
2023-02-24T11:16:12.796Z,6.90
2023-02-24T11:18:50.184Z,5.10
2023-02-24T11:21:19.917Z,6.00
2023-02-24T11:23:53.758Z,5.20
2023-02-24T11:26:33.197Z,5.80
2023-02-24T11:29:32.714Z,6.80
2023-02-24T11:32:06.743Z,7.30
2023-02-24T11:34:49.628Z,6.30
2023-02-24T11:37:40.668Z,5.90
2023-02-24T11:40:23.955Z,6.40
2023-02-24T11:43:03.389Z,5.60
2023-02-24T11:45:43.628Z,6.90
2023-02-24T11:48:16.186Z,6.00
2023-02-24T11:50:52.023Z,7.50
2023-02-24T11:53:25.805Z,6.50
2023-02-24T11:56:03.104Z,6.00
2023-02-24T11:58:54.656Z,6.30
2023-02-24T12:01:33.434Z,8.90
2023-02-24T12:04:07.430Z,5.50
2023-02-24T12:06:48.526Z,5.70
2023-02-24T12:09:22.353Z,6.00
2023-02-24T12:11:59.817Z,6.60
2023-02-24T12:14:34.844Z,5.90
2023-02-24T12:17:18.461Z,6.10
2023-02-24T12:19:57.695Z,6.10
2023-02-24T12:22:50.858Z,6.70
2023-02-24T12:25:25.562Z,6.60
2023-02-24T12:28:05.755Z,6.50
2023-02-24T12:31:14.260Z,6.30
2023-02-24T12:33:49.702Z,7.40
2023-02-24T12:36:37.785Z,5.60
2023-02-24T12:39:20.766Z,5.80
2023-02-24T12:42:29.418Z,6.90
2023-02-24T12:44:59.274Z,6.10
2023-02-24T12:47:43.381Z,6.90
2023-02-24T12:50:41.025Z,6.40
2023-02-24T12:53:28.512Z,5.80
2023-02-24T12:56:02.674Z,5.70
2023-02-24T12:58:39.189Z,5.10
2023-02-24T13:01:29.930Z,5.70
2023-02-24T13:04:35.498Z,6.50
2023-02-24T13:07:04.374Z,5.50
2023-02-24T13:10:07.086Z,5.40
2023-02-24T13:13:06.815Z,5.80
2023-02-24T13:15:36.260Z,5.70
2023-02-24T13:18:05.715Z,5.20
2023-02-24T13:20:37.498Z,5.60
2023-02-24T13:23:21.600Z,6.00
2023-02-24T13:25:55.806Z,6.20
2023-02-24T13:28:36.409Z,6.50
2023-02-24T13:31:10.631Z,5.50
2023-02-24T13:33:41.730Z,6.90
2023-02-24T13:36:22.023Z,5.20
2023-02-24T13:39:08.239Z,6.90
2023-02-24T13:41:41.013Z,5.60
2023-02-24T13:44:18.614Z,6.00
2023-02-24T13:47:13.134Z,5.20
2023-02-24T13:50:19.116Z,5.00
2023-02-24T13:52:57.216Z,7.40
2023-02-24T13:55:30.149Z,5.90
2023-02-24T13:58:19.816Z,6.30
2023-02-24T14:01:04.666Z,7.20
2023-02-24T14:03:34.561Z,8.40
2023-02-24T14:06:04.421Z,7.20
2023-02-24T14:08:35.557Z,5.90
2023-02-24T14:11:04.245Z,7.00
2023-02-24T14:13:34.436Z,7.00
2023-02-24T14:16:08.890Z,6.80
2023-02-24T14:18:37.823Z,5.90
2023-02-24T14:21:06.371Z,6.50
2023-02-24T14:23:35.518Z,8.20
2023-02-24T14:26:14.082Z,6.00
2023-02-24T14:28:42.675Z,6.70
2023-02-24T14:31:15.442Z,5.40
2023-02-24T14:33:45.684Z,6.30
2023-02-24T14:36:20.894Z,5.80
2023-02-24T14:39:12.515Z,6.60
2023-02-24T14:41:41.015Z,5.20
2023-02-24T14:44:18.972Z,7.50
2023-02-24T14:46:56.739Z,5.10
2023-02-24T14:49:28.074Z,6.00
2023-02-24T14:52:21.306Z,7.70
2023-02-24T14:55:16.028Z,9.00
2023-02-24T14:58:01.380Z,7.30
2023-02-24T15:00:48.446Z,6.70
2023-02-24T15:03:25.549Z,5.80
2023-02-24T15:05:57.655Z,6.40
2023-02-24T15:08:35.231Z,6.00
2023-02-24T15:11:18.594Z,6.90
2023-02-24T15:13:49.047Z,5.70
2023-02-24T15:16:22.299Z,5.60
2023-02-24T15:18:53.170Z,7.50
2023-02-24T15:21:29.129Z,6.70
2023-02-24T15:24:02.212Z,5.80
2023-02-24T15:26:35.587Z,7.20
2023-02-24T15:29:15.409Z,7.00
2023-02-24T15:31:48.416Z,6.00
2023-02-24T15:34:23.827Z,5.20
2023-02-24T15:36:56.840Z,6.90
2023-02-24T15:39:31.305Z,5.70
2023-02-24T15:42:07.369Z,7.10
2023-02-24T15:44:36.983Z,7.00
2023-02-24T15:47:25.283Z,6.60
2023-02-24T15:49:54.624Z,6.60
2023-02-24T15:52:28.712Z,6.60
2023-02-24T15:55:00.654Z,6.20
2023-02-24T15:57:34.218Z,6.40
2023-02-24T16:00:13.396Z,6.60
2023-02-24T16:02:42.377Z,7.00
2023-02-24T16:05:14.191Z,7.20
2023-02-24T16:07:45.425Z,7.40
2023-02-24T16:10:24.571Z,9.00
2023-02-24T16:12:58.507Z,6.90
2023-02-24T16:15:45.901Z,6.80
2023-02-24T16:18:21.929Z,7.20
2023-02-24T16:20:55.366Z,7.70
2023-02-24T16:23:26.809Z,6.50
2023-02-24T16:25:57.996Z,6.40
2023-02-24T16:28:29.212Z,6.80
2023-02-24T16:30:57.474Z,6.30
2023-02-24T16:33:26.123Z,6.70
2023-02-24T16:35:54.996Z,6.30
2023-02-24T16:38:26.929Z,6.20
2023-02-24T16:40:56.088Z,6.90
2023-02-24T16:43:25.202Z,6.60
2023-02-24T16:45:55.787Z,6.10
2023-02-24T16:48:26.933Z,6.50
2023-02-24T16:50:55.409Z,6.60
2023-02-24T16:53:25.297Z,6.50
2023-02-24T16:55:56.105Z,7.20
2023-02-24T16:58:25.867Z,7.60
2023-02-24T17:00:59.276Z,6.90
2023-02-24T17:03:44.444Z,7.00
2023-02-24T17:06:13.496Z,7.80
2023-02-24T17:08:43.919Z,7.20
2023-02-24T17:11:22.135Z,9.10
2023-02-24T17:13:50.512Z,7.10
2023-02-24T17:16:18.761Z,6.90
2023-02-24T17:18:46.968Z,7.40
2023-02-24T17:21:17.027Z,8.70
2023-02-24T17:23:45.291Z,8.10
2023-02-24T17:26:15.557Z,7.50
2023-02-24T17:28:44.256Z,7.20
2023-02-24T17:31:12.609Z,7.10
2023-02-24T17:33:41.763Z,7.20
2023-02-24T17:36:10.016Z,8.10
2023-02-24T17:38:39.586Z,8.60
2023-02-24T17:41:08.116Z,8.00
2023-02-24T17:43:36.314Z,6.00
2023-02-24T17:46:07.080Z,7.70
2023-02-24T17:48:35.963Z,6.90
2023-02-24T17:51:04.227Z,7.10
2023-02-24T17:53:33.889Z,9.00
2023-02-24T17:56:06.444Z,6.10
2023-02-24T17:58:36.723Z,6.90
2023-02-24T18:01:09.671Z,8.30
2023-02-24T18:03:38.208Z,7.70
2023-02-24T18:06:12.100Z,7.80
2023-02-24T18:08:41.011Z,6.70
2023-02-24T18:11:14.271Z,6.90
2023-02-24T18:13:43.493Z,7.40
2023-02-24T18:16:14.968Z,7.90
2023-02-24T18:18:43.316Z,7.10
2023-02-24T18:21:11.725Z,8.50
2023-02-24T18:23:40.823Z,6.20
2023-02-24T18:26:12.971Z,6.40
2023-02-24T18:28:42.049Z,7.30
2023-02-24T18:31:19.193Z,7.40
2023-02-24T18:33:51.359Z,8.10
2023-02-24T18:36:20.202Z,7.90
2023-02-24T18:38:48.955Z,9.30
2023-02-24T18:41:23.649Z,7.60
2023-02-24T18:43:57.442Z,8.60
2023-02-24T18:46:27.182Z,7.20
2023-02-24T18:48:56.967Z,7.30
2023-02-24T18:51:29.293Z,7.20
2023-02-24T18:54:03.092Z,7.80
2023-02-24T18:56:34.768Z,8.70
2023-02-24T18:59:03.971Z,8.20
2023-02-24T19:01:35.847Z,7.20
2023-02-24T19:04:06.588Z,8.20
2023-02-24T19:06:36.509Z,7.80
2023-02-24T19:09:10.962Z,8.10
2023-02-24T19:11:40.484Z,7.60
2023-02-24T19:14:11.960Z,8.40
2023-02-24T19:16:41.257Z,8.30
2023-02-24T19:19:14.062Z,7.40
2023-02-24T19:21:45.604Z,7.90
2023-02-24T19:24:14.683Z,7.30
2023-02-24T19:26:44.556Z,8.30
2023-02-24T19:29:12.889Z,7.50
2023-02-24T19:31:41.498Z,7.90
2023-02-24T19:34:12.180Z,8.30
2023-02-24T19:36:41.548Z,8.00
2023-02-24T19:39:13.361Z,7.90
2023-02-24T19:41:42.332Z,8.60
2023-02-24T19:44:11.317Z,6.60
2023-02-24T19:46:40.686Z,9.00
2023-02-24T19:49:09.096Z,8.90
2023-02-24T19:51:37.586Z,8.10
2023-02-24T19:54:08.597Z,9.10
2023-02-24T19:56:37.511Z,9.10
2023-02-24T19:59:07.309Z,9.00
2023-02-24T20:01:35.670Z,10.90
2023-02-24T20:04:04.923Z,8.70
2023-02-24T20:06:36.647Z,9.20
2023-02-24T20:09:10.683Z,8.00
2023-02-24T20:11:39.867Z,8.40
2023-02-24T20:14:10.607Z,8.10
2023-02-24T20:16:40.746Z,9.30
2023-02-24T20:19:11.667Z,8.10
2023-02-24T20:21:41.058Z,7.90
2023-02-24T20:24:13.716Z,8.30
2023-02-24T20:26:47.320Z,8.00
2023-02-24T20:29:17.812Z,8.10
2023-02-24T20:31:46.610Z,7.40
2023-02-24T20:34:16.925Z,8.40
2023-02-24T20:36:45.667Z,9.00
2023-02-24T20:39:14.036Z,9.10
2023-02-24T20:41:42.883Z,7.80
2023-02-24T20:44:12.542Z,8.30
2023-02-24T20:46:41.140Z,8.80
2023-02-24T20:49:12.904Z,10.20
2023-02-24T20:51:42.157Z,9.90
2023-02-24T20:54:12.785Z,10.20
2023-02-24T20:56:43.114Z,10.40
2023-02-24T20:59:15.236Z,9.50
2023-02-24T21:01:47.345Z,8.70
2023-02-24T21:04:19.553Z,9.00
2023-02-24T21:06:51.650Z,7.60
2023-02-24T21:09:19.862Z,8.00
2023-02-24T21:11:48.245Z,7.90
2023-02-24T21:14:17.533Z,9.20
2023-02-24T21:16:47.054Z,8.90
2023-02-24T21:19:17.924Z,7.40
2023-02-24T21:21:46.229Z,8.60
2023-02-24T21:24:14.627Z,8.40
2023-02-24T21:26:42.877Z,9.10
2023-02-24T21:29:11.049Z,9.80
2023-02-24T21:31:39.524Z,8.20
2023-02-24T21:34:11.589Z,9.70
2023-02-24T21:36:39.740Z,8.10
2023-02-24T21:39:08.065Z,9.40
2023-02-24T21:41:36.293Z,8.00
2023-02-24T21:44:05.187Z,9.60
2023-02-24T21:46:33.462Z,9.20
2023-02-24T21:49:01.749Z,9.30
2023-02-24T21:51:30.727Z,9.70
2023-02-24T21:53:59.238Z,9.70
2023-02-24T21:56:29.610Z,10.10
2023-02-24T21:59:03.718Z,9.70
2023-02-24T22:01:38.302Z,9.70
2023-02-24T22:04:10.201Z,9.30
2023-02-24T22:06:40.050Z,10.40
2023-02-24T22:09:10.412Z,11.00
2023-02-24T22:11:43.836Z,9.70
2023-02-24T22:14:13.948Z,8.60
2023-02-24T22:16:42.905Z,9.60
2023-02-24T22:19:11.854Z,9.80
2023-02-24T22:21:42.753Z,10.10
2023-02-24T22:24:14.093Z,10.00
2023-02-24T22:26:43.364Z,9.20
2023-02-24T22:29:12.230Z,8.20
2023-02-24T22:31:43.835Z,9.40
2023-02-24T22:34:14.976Z,8.60
2023-02-24T22:36:43.439Z,9.70
2023-02-24T22:39:16.687Z,10.00
2023-02-24T22:41:46.926Z,9.60
2023-02-24T22:44:19.358Z,8.90
2023-02-24T22:46:48.549Z,9.90
2023-02-24T22:49:16.953Z,8.80
2023-02-24T22:51:45.960Z,9.00
2023-02-24T22:54:14.752Z,9.30
2023-02-24T22:56:43.009Z,9.20
2023-02-24T22:59:12.145Z,8.80
2023-02-24T23:01:43.800Z,8.50
2023-02-24T23:04:16.384Z,8.30
2023-02-24T23:06:44.903Z,9.00
2023-02-24T23:09:14.224Z,9.30
2023-02-24T23:11:42.436Z,10.10
2023-02-24T23:14:16.700Z,9.70
2023-02-24T23:16:47.505Z,10.10
2023-02-24T23:19:18.239Z,10.00
2023-02-24T23:21:52.850Z,10.10
2023-02-24T23:24:22.423Z,10.10
2023-02-24T23:26:57.872Z,9.80
2023-02-24T23:29:27.786Z,9.90
2023-02-24T23:31:56.266Z,10.50
2023-02-24T23:34:25.539Z,10.50
2023-02-24T23:36:53.771Z,10.60
2023-02-24T23:39:24.001Z,12.30
2023-02-24T23:41:57.553Z,10.80
2023-02-24T23:44:26.449Z,10.90
2023-02-24T23:46:58.391Z,10.90
2023-02-24T23:49:36.069Z,9.10
2023-02-24T23:52:13.785Z,10.60
2023-02-24T23:54:42.174Z,11.20
2023-02-24T23:57:10.364Z,10.80
2023-02-24T23:59:40.030Z,11.80
